createdAt,value
2019-05-20T00:02:02.650Z,66.70
2019-05-20T00:04:31.288Z,66.90
2019-05-20T00:07:00.029Z,67.00
2019-05-20T00:09:28.666Z,67.20
2019-05-20T00:11:57.318Z,67.20
2019-05-20T00:14:25.913Z,67.30
2019-05-20T00:16:54.659Z,67.40
2019-05-20T00:19:23.275Z,67.60
2019-05-20T00:21:51.903Z,67.70
2019-05-20T00:24:20.492Z,67.90
2019-05-20T00:26:49.218Z,68.10
2019-05-20T00:29:17.899Z,68.20
2019-05-20T00:31:46.636Z,68.30
2019-05-20T00:34:15.371Z,68.40
2019-05-20T00:36:43.988Z,68.60
2019-05-20T00:39:14.563Z,68.60
2019-05-20T00:41:43.366Z,68.90
2019-05-20T00:44:12.099Z,69.50
2019-05-20T00:46:40.790Z,68.90
2019-05-20T00:49:09.531Z,69.40
2019-05-20T00:51:38.255Z,68.70
2019-05-20T00:54:07.201Z,68.50
2019-05-20T00:56:36.740Z,68.40
2019-05-20T00:59:06.125Z,68.50
2019-05-20T01:01:34.799Z,68.30
2019-05-20T01:04:03.648Z,68.20
2019-05-20T01:06:32.254Z,67.60
2019-05-20T01:09:01.005Z,68.00
2019-05-20T01:11:29.672Z,67.90
2019-05-20T01:13:58.414Z,68.10
2019-05-20T01:16:27.158Z,68.10
2019-05-20T01:18:55.904Z,68.10
2019-05-20T01:21:24.648Z,68.00
2019-05-20T01:23:53.401Z,67.80
2019-05-20T01:26:22.090Z,68.00
2019-05-20T01:28:50.740Z,68.00
2019-05-20T01:31:19.342Z,68.20
2019-05-20T01:33:48.087Z,68.10
2019-05-20T01:36:16.697Z,68.10
2019-05-20T01:38:45.390Z,68.30
2019-05-20T01:41:14.133Z,68.30
2019-05-20T01:43:42.883Z,68.50
2019-05-20T01:46:11.612Z,68.90
2019-05-20T01:48:40.311Z,69.10
2019-05-20T01:51:09.142Z,69.10
2019-05-20T01:53:37.831Z,69.30
2019-05-20T01:56:06.568Z,69.80
2019-05-20T01:58:35.166Z,70.50
2019-05-20T02:01:03.927Z,70.70
2019-05-20T02:03:32.677Z,71.10
2019-05-20T02:06:01.635Z,71.60
2019-05-20T02:08:30.226Z,71.90
2019-05-20T02:10:58.904Z,71.80
2019-05-20T02:13:29.225Z,72.00
2019-05-20T02:16:05.303Z,72.00
2019-05-20T02:18:33.988Z,72.00
2019-05-20T02:21:02.731Z,71.90
2019-05-20T02:23:31.340Z,72.00
2019-05-20T02:26:00.079Z,72.50
2019-05-20T02:28:28.697Z,72.80
2019-05-20T02:30:57.428Z,72.10
2019-05-20T02:33:26.267Z,72.50
2019-05-20T02:35:55.004Z,72.70
2019-05-20T02:38:23.780Z,72.90
2019-05-20T02:40:52.515Z,72.90
2019-05-20T02:43:21.351Z,73.10
2019-05-20T02:45:50.104Z,73.40
2019-05-20T02:48:18.836Z,73.90
2019-05-20T02:50:47.576Z,74.50
2019-05-20T02:53:16.251Z,74.90
2019-05-20T02:55:45.062Z,75.00
2019-05-20T02:58:13.693Z,75.20
2019-05-20T03:00:42.514Z,75.60
2019-05-20T03:03:11.319Z,76.00
2019-05-20T03:05:40.055Z,76.50
2019-05-20T03:08:09.653Z,76.60
2019-05-20T03:10:38.408Z,76.60
2019-05-20T03:13:07.164Z,76.70
2019-05-20T03:15:35.825Z,76.70
2019-05-20T03:18:06.494Z,76.40
2019-05-20T03:20:34.881Z,76.60
2019-05-20T03:23:03.626Z,77.00
2019-05-20T03:25:32.292Z,76.50
2019-05-20T03:28:01.032Z,76.60
2019-05-20T03:30:29.665Z,76.90
2019-05-20T03:32:58.422Z,77.10
2019-05-20T03:35:27.177Z,76.70
2019-05-20T03:37:56.350Z,77.10
2019-05-20T03:40:25.104Z,77.40
2019-05-20T03:42:53.840Z,77.60
2019-05-20T03:45:22.432Z,77.80
2019-05-20T03:47:51.188Z,78.10
2019-05-20T03:50:19.774Z,78.90
2019-05-20T03:52:48.506Z,78.70
2019-05-20T03:55:17.236Z,78.90
2019-05-20T03:57:45.976Z,79.00
2019-05-20T04:00:14.921Z,79.30
2019-05-20T04:02:43.664Z,79.30
2019-05-20T04:05:12.612Z,79.30
2019-05-20T04:07:42.626Z,79.30
2019-05-20T04:10:12.304Z,79.50
2019-05-20T04:12:41.047Z,79.60
2019-05-20T04:15:09.975Z,79.70
2019-05-20T04:17:38.710Z,80.00
2019-05-20T04:20:08.367Z,79.70
2019-05-20T04:22:37.101Z,79.70
2019-05-20T04:25:07.126Z,79.80
2019-05-20T04:27:35.892Z,79.70
2019-05-20T04:30:06.949Z,79.60
2019-05-20T04:32:35.533Z,79.70
2019-05-20T04:35:20.759Z,79.70
2019-05-20T04:37:34.547Z,80.10
2019-05-20T04:40:04.292Z,81.60
2019-05-20T04:42:33.020Z,83.70
2019-05-20T04:45:01.712Z,85.60
2019-05-20T04:47:30.360Z,87.20
2019-05-20T04:49:59.041Z,89.00
2019-05-20T04:52:27.781Z,90.60
2019-05-20T04:54:56.452Z,91.30
2019-05-20T04:57:25.566Z,92.40
2019-05-20T05:00:16.820Z,93.30
2019-05-20T05:02:45.603Z,94.60
2019-05-20T05:05:14.439Z,95.60
2019-05-20T05:07:43.167Z,96.00
2019-05-20T05:10:14.847Z,97.20
2019-05-20T05:12:43.533Z,98.00
2019-05-20T05:15:12.884Z,98.90
2019-05-20T05:17:41.540Z,99.00
2019-05-20T05:20:17.836Z,99.90
2019-05-20T05:22:41.213Z,99.90
2019-05-20T05:25:10.460Z,99.90
2019-05-20T05:27:39.220Z,99.90
2019-05-20T05:30:08.155Z,99.90
2019-05-20T05:32:43.078Z,99.90
2019-05-20T05:35:14.271Z,99.70
2019-05-20T05:37:43.034Z,99.60
2019-05-20T05:40:12.270Z,99.90
2019-05-20T05:42:40.939Z,99.90
2019-05-20T05:45:10.171Z,99.40
2019-05-20T05:47:38.928Z,99.40
2019-05-20T05:50:07.953Z,99.60
2019-05-20T05:52:36.627Z,99.30
2019-05-20T05:55:05.963Z,98.80
2019-05-20T05:57:34.713Z,98.50
2019-05-20T06:00:09.690Z,98.70
2019-05-20T06:02:38.438Z,99.40
2019-05-20T06:05:08.178Z,98.00
2019-05-20T06:07:36.779Z,98.20
2019-05-20T06:10:08.399Z,98.00
2019-05-20T06:12:38.092Z,97.60
2019-05-20T06:15:08.311Z,97.70
2019-05-20T06:17:37.056Z,98.10
2019-05-20T06:20:07.109Z,98.40
2019-05-20T06:22:35.863Z,98.90
2019-05-20T06:25:05.829Z,98.90
2019-05-20T06:27:34.577Z,98.30
2019-05-20T06:30:04.904Z,98.30
2019-05-20T06:32:33.652Z,97.70
2019-05-20T06:35:02.611Z,97.20
2019-05-20T06:37:33.202Z,96.80
2019-05-20T06:40:01.969Z,95.50
2019-05-20T06:42:30.805Z,95.50
2019-05-20T06:44:59.583Z,94.90
2019-05-20T06:47:28.323Z,93.10
2019-05-20T06:49:56.998Z,93.40
2019-05-20T06:52:35.364Z,92.80
2019-05-20T06:54:56.113Z,92.80
2019-05-20T06:57:24.850Z,92.40
2019-05-20T06:59:53.542Z,92.40
2019-05-20T07:02:22.271Z,92.50
2019-05-20T07:04:50.958Z,92.10
2019-05-20T07:07:21.363Z,91.30
2019-05-20T07:09:50.369Z,91.60
2019-05-20T07:12:18.964Z,91.90
2019-05-20T07:14:48.902Z,92.00
2019-05-20T07:17:17.663Z,91.70
2019-05-20T07:19:46.331Z,91.30
2019-05-20T07:22:15.960Z,90.40
2019-05-20T07:24:44.561Z,90.40
2019-05-20T07:27:13.179Z,89.30
2019-05-20T07:29:41.903Z,90.00
2019-05-20T07:32:10.583Z,89.70
2019-05-20T07:34:39.260Z,90.70
2019-05-20T07:37:07.885Z,85.90
2019-05-20T07:39:36.637Z,84.00
2019-05-20T07:42:05.379Z,86.10
2019-05-20T07:44:34.126Z,83.40
2019-05-20T07:47:02.929Z,83.60
2019-05-20T07:49:31.843Z,82.90
2019-05-20T07:52:00.582Z,82.00
2019-05-20T07:54:29.795Z,78.90
2019-05-20T07:57:01.648Z,76.20
2019-05-20T07:59:33.754Z,76.30
2019-05-20T08:02:02.790Z,75.90
2019-05-20T08:04:32.153Z,74.90
2019-05-20T08:07:00.801Z,75.40
2019-05-20T08:09:30.826Z,75.20
2019-05-20T08:11:59.616Z,74.60
2019-05-20T08:14:28.360Z,72.90
2019-05-20T08:16:57.118Z,68.90
2019-05-20T08:19:25.861Z,69.70
2019-05-20T08:21:54.609Z,67.30
2019-05-20T08:24:23.343Z,65.10
2019-05-20T08:26:52.799Z,63.10
2019-05-20T08:29:21.557Z,61.30
2019-05-20T08:31:50.224Z,58.50
2019-05-20T08:34:19.945Z,56.00
2019-05-20T08:36:48.620Z,52.10
2019-05-20T08:39:17.426Z,52.40
2019-05-20T08:41:46.095Z,52.20
2019-05-20T08:44:14.848Z,53.10
2019-05-20T08:46:43.624Z,55.10
2019-05-20T08:49:12.390Z,56.80
2019-05-20T08:51:41.126Z,59.10
2019-05-20T08:54:09.911Z,59.30
2019-05-20T08:56:38.578Z,59.10
2019-05-20T08:59:07.323Z,60.70
2019-05-20T09:01:36.026Z,59.50
2019-05-20T09:04:04.759Z,61.30
2019-05-20T09:06:33.522Z,59.00
2019-05-20T09:09:02.216Z,56.20
2019-05-20T09:11:30.946Z,54.40
2019-05-20T09:13:59.632Z,53.40
2019-05-20T09:16:28.296Z,54.90
2019-05-20T09:18:57.051Z,56.30
2019-05-20T09:21:25.746Z,57.60
2019-05-20T09:23:54.493Z,58.00
2019-05-20T09:26:23.163Z,59.10
2019-05-20T09:28:51.887Z,59.50
2019-05-20T09:31:20.728Z,61.30
2019-05-20T09:33:49.666Z,59.80
2019-05-20T09:36:18.355Z,60.50
2019-05-20T09:38:47.202Z,61.10
2019-05-20T09:41:15.929Z,61.10
2019-05-20T09:43:44.626Z,60.40
2019-05-20T09:46:13.347Z,60.50
2019-05-20T09:48:42.141Z,60.00
2019-05-20T09:51:10.910Z,61.50
2019-05-20T09:53:39.647Z,60.90
2019-05-20T09:56:08.409Z,59.40
2019-05-20T09:58:37.059Z,58.10
2019-05-20T10:01:05.962Z,57.90
2019-05-20T10:03:34.626Z,56.90
2019-05-20T10:06:04.735Z,55.60
2019-05-20T10:08:43.318Z,55.20
2019-05-20T10:11:03.729Z,54.60
2019-05-20T10:13:32.402Z,53.60
2019-05-20T10:16:01.147Z,54.40
2019-05-20T10:18:37.229Z,51.50
2019-05-20T10:21:00.308Z,51.30
2019-05-20T10:23:28.907Z,51.30
2019-05-20T10:25:57.700Z,51.00
2019-05-20T10:28:26.438Z,49.70
2019-05-20T10:30:55.116Z,49.80
2019-05-20T10:33:23.712Z,49.50
2019-05-20T10:35:52.453Z,51.00
2019-05-20T10:38:21.216Z,49.60
2019-05-20T10:40:50.109Z,50.10
2019-05-20T10:43:18.739Z,49.30
2019-05-20T10:45:47.475Z,49.00
2019-05-20T10:48:16.141Z,48.30
2019-05-20T10:50:45.611Z,48.30
2019-05-20T10:53:14.355Z,47.50
2019-05-20T10:55:43.110Z,46.90
2019-05-20T10:58:11.772Z,46.80
2019-05-20T11:00:40.520Z,47.10
2019-05-20T11:03:09.193Z,45.90
2019-05-20T11:05:37.919Z,46.10
2019-05-20T11:08:06.671Z,45.60
2019-05-20T11:10:35.407Z,45.20
2019-05-20T11:13:04.162Z,44.70
2019-05-20T11:15:32.769Z,44.90
2019-05-20T11:18:03.880Z,45.40
2019-05-20T11:20:32.473Z,44.60
2019-05-20T11:23:01.490Z,43.90
2019-05-20T11:25:30.267Z,44.80
2019-05-20T11:27:58.955Z,44.50
2019-05-20T11:30:27.904Z,44.40
2019-05-20T11:32:56.610Z,45.10
2019-05-20T11:35:25.287Z,44.50
2019-05-20T11:37:54.021Z,44.70
2019-05-20T11:40:23.023Z,44.90
2019-05-20T11:42:51.791Z,45.00
2019-05-20T11:45:20.622Z,44.70
2019-05-20T11:47:49.367Z,43.90
2019-05-20T11:50:18.300Z,44.50
2019-05-20T11:52:47.044Z,44.30
2019-05-20T11:55:17.078Z,45.00
2019-05-20T11:57:45.813Z,45.80
2019-05-20T12:00:16.689Z,46.00
2019-05-20T12:02:45.320Z,46.30
2019-05-20T12:05:14.813Z,46.20
2019-05-20T12:07:43.443Z,46.00
2019-05-20T12:10:12.979Z,46.00
2019-05-20T12:12:41.636Z,44.80
2019-05-20T12:15:12.083Z,44.40
2019-05-20T12:17:40.835Z,44.70
2019-05-20T12:20:12.419Z,42.80
2019-05-20T12:22:41.076Z,42.60
2019-05-20T12:25:10.505Z,41.60
2019-05-20T12:27:39.240Z,41.80
2019-05-20T12:30:08.898Z,41.80
2019-05-20T12:32:37.548Z,41.10
2019-05-20T12:35:08.405Z,41.60
2019-05-20T12:37:37.347Z,41.20
2019-05-20T12:40:08.343Z,40.90
2019-05-20T12:42:37.342Z,40.70
2019-05-20T12:45:09.570Z,41.70
2019-05-20T12:47:38.227Z,41.40
2019-05-20T12:50:08.879Z,42.00
2019-05-20T12:52:37.784Z,42.70
2019-05-20T12:55:09.563Z,42.70
2019-05-20T12:57:37.927Z,43.10
2019-05-20T13:00:09.404Z,42.90
2019-05-20T13:02:38.138Z,43.00
2019-05-20T13:05:07.879Z,43.30
2019-05-20T13:07:36.474Z,43.70
2019-05-20T13:10:26.863Z,44.00
2019-05-20T13:12:39.891Z,44.30
2019-05-20T13:15:09.318Z,44.10
2019-05-20T13:17:43.405Z,44.10
2019-05-20T13:20:09.528Z,44.20
2019-05-20T13:22:38.198Z,44.50
2019-05-20T13:25:07.906Z,44.70
2019-05-20T13:27:36.573Z,44.80
2019-05-20T13:30:09.972Z,44.40
2019-05-20T13:32:38.633Z,44.60
2019-05-20T13:35:07.947Z,44.70
2019-05-20T13:37:36.799Z,44.50
2019-05-20T13:40:09.247Z,44.70
2019-05-20T13:42:37.855Z,44.60
2019-05-20T13:45:07.071Z,44.60
2019-05-20T13:47:36.907Z,44.80
2019-05-20T13:50:07.650Z,44.60
2019-05-20T13:52:36.507Z,44.30
2019-05-20T13:55:06.755Z,43.80
2019-05-20T13:57:35.489Z,44.10
2019-05-20T14:00:06.040Z,44.30
2019-05-20T14:02:34.766Z,44.20
2019-05-20T14:05:03.517Z,44.00
2019-05-20T14:07:32.255Z,43.70
2019-05-20T14:10:00.929Z,44.30
2019-05-20T14:12:29.783Z,44.50
2019-05-20T14:14:58.396Z,44.00
2019-05-20T14:17:27.295Z,45.00
2019-05-20T14:19:55.982Z,45.50
2019-05-20T14:22:24.726Z,45.90
2019-05-20T14:24:53.393Z,46.30
2019-05-20T14:27:22.047Z,46.40
2019-05-20T14:29:50.654Z,46.50
2019-05-20T14:32:19.399Z,46.50
2019-05-20T14:34:47.986Z,46.60
2019-05-20T14:37:16.668Z,46.30
2019-05-20T14:39:45.424Z,46.70
2019-05-20T14:42:14.186Z,46.30
2019-05-20T14:44:42.774Z,46.40
2019-05-20T14:47:11.517Z,46.30
2019-05-20T14:49:40.113Z,46.40
2019-05-20T14:52:08.843Z,46.40
2019-05-20T14:54:37.462Z,46.70
2019-05-20T14:57:06.211Z,47.00
2019-05-20T14:59:34.826Z,47.40
2019-05-20T15:02:03.586Z,47.60
2019-05-20T15:04:32.186Z,47.80
2019-05-20T15:07:00.915Z,48.00
2019-05-20T15:09:29.658Z,47.90
2019-05-20T15:11:58.326Z,48.00
2019-05-20T15:14:27.073Z,47.90
2019-05-20T15:16:55.673Z,47.90
2019-05-20T15:19:24.412Z,47.90
2019-05-20T15:21:54.031Z,47.60
2019-05-20T15:24:22.835Z,48.10
2019-05-20T15:26:51.691Z,47.90
2019-05-20T15:29:27.885Z,47.70
2019-05-20T15:31:50.933Z,48.30
2019-05-20T15:34:19.673Z,47.90
2019-05-20T15:36:48.493Z,47.90
2019-05-20T15:39:17.271Z,48.20
2019-05-20T15:41:46.259Z,48.70
2019-05-20T15:44:15.083Z,48.40
2019-05-20T15:46:43.687Z,48.20
2019-05-20T15:49:12.431Z,48.50
2019-05-20T15:51:41.163Z,48.40
2019-05-20T15:54:09.920Z,48.20
2019-05-20T15:56:38.553Z,47.70
2019-05-20T15:59:07.272Z,48.20
2019-05-20T16:01:35.948Z,48.30
2019-05-20T16:04:04.693Z,48.40
2019-05-20T16:06:33.476Z,48.00
2019-05-20T16:09:02.264Z,47.00
2019-05-20T16:11:30.827Z,47.10
2019-05-20T16:13:59.554Z,47.00
2019-05-20T16:16:28.161Z,47.00
2019-05-20T16:18:56.851Z,47.20
2019-05-20T16:21:25.596Z,47.00
2019-05-20T16:23:54.331Z,46.70
2019-05-20T16:26:22.936Z,47.10
2019-05-20T16:28:51.544Z,46.80
2019-05-20T16:31:20.283Z,47.50
2019-05-20T16:33:48.889Z,48.10
2019-05-20T16:36:17.623Z,48.30
2019-05-20T16:38:46.368Z,48.30
2019-05-20T16:41:15.111Z,48.30
2019-05-20T16:43:43.692Z,48.80
2019-05-20T16:46:12.429Z,49.60
2019-05-20T16:48:41.100Z,49.10
2019-05-20T16:51:09.939Z,49.40
2019-05-20T16:53:38.644Z,49.20
2019-05-20T16:56:07.401Z,49.50
2019-05-20T16:58:36.009Z,49.70
2019-05-20T17:01:04.750Z,49.40
2019-05-20T17:03:33.418Z,49.70
2019-05-20T17:06:02.104Z,49.80
2019-05-20T17:08:30.699Z,50.20
2019-05-20T17:10:59.464Z,50.10
2019-05-20T17:13:28.136Z,50.30
2019-05-20T17:15:56.879Z,50.10
2019-05-20T17:18:25.614Z,50.30
2019-05-20T17:20:54.367Z,49.90
2019-05-20T17:23:22.948Z,50.40
2019-05-20T17:25:51.684Z,50.90
2019-05-20T17:28:20.278Z,51.50
2019-05-20T17:30:49.015Z,51.00
2019-05-20T17:33:17.699Z,51.30
2019-05-20T17:35:46.427Z,51.60
2019-05-20T17:38:15.035Z,51.90
2019-05-20T17:40:43.887Z,52.20
2019-05-20T17:43:12.543Z,52.70
2019-05-20T17:45:41.403Z,53.30
2019-05-20T17:48:10.136Z,53.60
2019-05-20T17:50:38.807Z,54.30
2019-05-20T17:53:07.534Z,54.50
2019-05-20T17:55:36.501Z,54.90
2019-05-20T17:58:05.391Z,55.10
2019-05-20T18:00:34.125Z,55.40
2019-05-20T18:03:04.642Z,55.60
2019-05-20T18:05:34.298Z,56.00
2019-05-20T18:08:03.118Z,56.20
2019-05-20T18:10:31.971Z,56.40
2019-05-20T18:13:02.205Z,56.70
2019-05-20T18:15:30.948Z,57.00
2019-05-20T18:17:59.809Z,57.20
2019-05-20T18:20:28.718Z,57.50
2019-05-20T18:22:58.416Z,57.60
2019-05-20T18:25:27.348Z,57.90
2019-05-20T18:27:56.455Z,58.20
2019-05-20T18:30:26.107Z,58.50
2019-05-20T18:32:54.673Z,58.60
2019-05-20T18:35:23.472Z,58.80
2019-05-20T18:37:52.203Z,59.10
2019-05-20T18:40:21.088Z,59.10
2019-05-20T18:42:49.895Z,59.40
2019-05-20T18:45:20.344Z,59.50
2019-05-20T18:47:50.690Z,59.70
2019-05-20T18:50:19.855Z,60.10
2019-05-20T18:52:48.638Z,60.30
2019-05-20T18:55:19.000Z,60.70
2019-05-20T18:57:47.626Z,61.00
2019-05-20T19:00:17.130Z,61.30
2019-05-20T19:02:45.874Z,61.60
2019-05-20T19:05:14.829Z,62.00
2019-05-20T19:07:43.553Z,62.20
2019-05-20T19:10:12.566Z,62.50
2019-05-20T19:12:41.240Z,62.80
2019-05-20T19:15:10.755Z,63.00
2019-05-20T19:17:39.524Z,63.30
2019-05-20T19:20:08.267Z,63.70
2019-05-20T19:22:36.885Z,64.00
2019-05-20T19:25:07.487Z,64.30
2019-05-20T19:27:37.601Z,64.70
2019-05-20T19:30:06.989Z,64.90
2019-05-20T19:32:35.570Z,65.20
2019-05-20T19:35:06.546Z,65.50
2019-05-20T19:37:35.220Z,65.70
2019-05-20T19:40:05.060Z,65.80
2019-05-20T19:42:33.950Z,65.90
2019-05-20T19:45:02.707Z,66.10
2019-05-20T19:47:31.329Z,66.10
2019-05-20T19:50:00.083Z,66.10
2019-05-20T19:52:30.320Z,66.30
2019-05-20T19:54:58.980Z,66.60
2019-05-20T19:57:27.736Z,67.00
2019-05-20T19:59:56.514Z,67.60
2019-05-20T20:02:25.129Z,68.40
2019-05-20T20:04:53.958Z,69.60
2019-05-20T20:07:22.634Z,70.70
2019-05-20T20:09:51.311Z,72.20
2019-05-20T20:12:19.900Z,73.10
2019-05-20T20:14:48.635Z,74.40
2019-05-20T20:17:17.304Z,75.30
2019-05-20T20:19:46.056Z,76.20
2019-05-20T20:22:14.650Z,77.00
2019-05-20T20:24:43.393Z,77.90
2019-05-20T20:27:12.129Z,78.40
2019-05-20T20:29:40.783Z,79.30
2019-05-20T20:32:09.527Z,80.10
2019-05-20T20:34:38.129Z,81.00
2019-05-20T20:37:06.868Z,82.00
2019-05-20T20:39:35.460Z,83.10
2019-05-20T20:42:04.210Z,84.60
2019-05-20T20:44:32.803Z,86.00
2019-05-20T20:47:01.394Z,88.50
2019-05-20T20:49:30.075Z,90.10
2019-05-20T20:51:58.819Z,91.30
2019-05-20T20:54:27.566Z,93.40
2019-05-20T20:56:56.307Z,95.50
2019-05-20T20:59:24.903Z,96.90
2019-05-20T21:01:56.712Z,97.80
2019-05-20T21:04:23.815Z,98.40
2019-05-20T21:06:52.625Z,99.20
2019-05-20T21:09:21.214Z,99.90
2019-05-20T21:11:49.959Z,99.90
2019-05-20T21:14:18.612Z,99.90
2019-05-20T21:16:47.374Z,99.90
2019-05-20T21:19:16.126Z,99.90
2019-05-20T21:21:44.790Z,99.90
2019-05-20T21:24:13.459Z,99.90
2019-05-20T21:26:42.201Z,99.90
2019-05-20T21:29:10.878Z,99.90
2019-05-20T21:31:39.620Z,99.90
2019-05-20T21:34:08.306Z,99.90
2019-05-20T21:36:46.873Z,99.90
2019-05-20T21:39:07.309Z,99.90
2019-05-20T21:41:36.102Z,99.90
2019-05-20T21:44:04.835Z,99.90
2019-05-20T21:46:33.439Z,99.90
2019-05-20T21:49:02.248Z,99.90
2019-05-20T21:51:30.880Z,99.90
2019-05-20T21:53:59.503Z,99.90
2019-05-20T21:56:28.112Z,99.90
2019-05-20T21:58:56.852Z,99.90
2019-05-20T22:01:25.455Z,99.90
2019-05-20T22:03:54.190Z,99.90
2019-05-20T22:06:22.923Z,99.90
2019-05-20T22:08:51.677Z,99.90
2019-05-20T22:11:20.271Z,99.90
2019-05-20T22:13:49.149Z,99.90
2019-05-20T22:16:17.838Z,99.90
2019-05-20T22:18:46.509Z,99.90
2019-05-20T22:21:16.757Z,99.90
2019-05-20T22:23:55.823Z,99.90
2019-05-20T22:26:24.434Z,99.90
2019-05-20T22:28:53.184Z,99.90
2019-05-20T22:31:21.865Z,99.90
2019-05-20T22:33:50.607Z,99.90
2019-05-20T22:36:19.342Z,99.90
2019-05-20T22:38:48.100Z,99.90
2019-05-20T22:41:16.701Z,99.90
2019-05-20T22:43:45.439Z,99.90
2019-05-20T22:46:14.148Z,99.90
2019-05-20T22:48:42.895Z,99.90
2019-05-20T22:51:11.499Z,99.90
2019-05-20T22:53:40.178Z,99.90
2019-05-20T22:56:08.896Z,99.90
2019-05-20T22:58:38.623Z,99.90
2019-05-20T23:01:07.443Z,99.90
2019-05-20T23:03:36.184Z,99.90
2019-05-20T23:06:04.941Z,99.90
2019-05-20T23:08:33.551Z,99.90
2019-05-20T23:11:02.208Z,99.90
2019-05-20T23:13:30.892Z,99.90
2019-05-20T23:15:59.543Z,99.90
2019-05-20T23:18:28.245Z,99.90
2019-05-20T23:20:57.052Z,99.90
2019-05-20T23:23:25.607Z,99.90
2019-05-20T23:25:54.266Z,99.90
2019-05-20T23:28:22.888Z,99.90
2019-05-20T23:30:51.631Z,99.90
2019-05-20T23:33:20.299Z,99.90
2019-05-20T23:35:49.107Z,99.90
2019-05-20T23:38:17.706Z,99.90
2019-05-20T23:40:46.530Z,99.90
2019-05-20T23:43:15.148Z,99.90
2019-05-20T23:45:44.387Z,99.90
2019-05-20T23:48:12.987Z,99.90
2019-05-20T23:50:41.724Z,99.90
2019-05-20T23:53:10.395Z,99.90
2019-05-20T23:55:39.125Z,99.90
2019-05-20T23:58:07.912Z,99.90
